Time;durP1;ratioP1;P1;durP2;ratioP2;P2;SDS_P1;SDS_P2;PMS_P1;PMS_P2;Temp;Humidity;BMP_temperature;BMP_pressure;BME280_temperature;BME280_humidity;BME280_pressure;Samples;Min_cycle;Max_cycle;Signal;HPM_P1;HPM_P2
2022/08/08 00:01:24;;;;;;;3.60;1.37;;;;;;;21.48;39.42;98415.34;8452409;28;20226;-76
2022/08/08 00:05:52;;;;;;;2.23;1.60;;;;;;;21.33;40.32;98417.41;8452475;28;20522;-75
2022/08/08 00:10:13;;;;;;;2.27;1.60;;;;;;;21.31;39.92;98419.31;8452746;28;20237;-76
2022/08/08 00:14:23;;;;;;;5.10;1.53;;;;;;;21.31;39.44;98423.78;8452437;28;20234;-76
2022/08/08 00:18:50;;;;;;;3.30;1.40;;;;;;;21.11;40.12;98420.94;8452630;28;20290;-77
2022/08/08 00:22:56;;;;;;;4.00;1.67;;;;;;;21.02;39.48;98416.44;8452092;28;20237;-77
2022/08/08 00:27:05;;;;;;;2.23;1.50;;;;;;;20.99;39.40;98416.66;8452467;28;20232;-77
2022/08/08 00:31:16;;;;;;;3.87;1.60;;;;;;;20.94;40.10;98418.81;8452361;28;20226;-77
2022/08/08 00:35:46;;;;;;;2.50;1.30;;;;;;;21.01;39.17;98418.19;8452084;28;20229;-77
2022/08/08 00:39:57;;;;;;;5.13;1.50;;;;;;;20.88;39.78;98420.13;8417915;28;20308;-76
2022/08/08 00:44:42;;;;;;;3.03;1.40;;;;;;;20.86;40.20;98422.88;8417465;28;20238;-77
2022/08/08 00:49:22;;;;;;;3.53;1.50;;;;;;;20.85;39.99;98423.03;8417782;28;20226;-76
2022/08/08 00:53:47;;;;;;;2.83;1.40;;;;;;;20.76;40.18;98414.06;8403952;28;20230;-76
2022/08/08 00:58:28;;;;;;;3.10;1.87;;;;;;;20.73;40.18;98413.47;8417999;28;20233;-76
2022/08/08 01:03:08;;;;;;;1.70;1.50;;;;;;;20.67;40.41;98409.53;8417842;28;20238;-76
2022/08/08 01:08:11;;;;;;;3.17;1.50;;;;;;;20.56;40.81;98404.22;8400913;28;20544;-76
2022/08/08 01:12:54;;;;;;;3.50;1.80;;;;;;;20.51;41.02;98409.88;8340793;28;20235;-76
2022/08/08 01:17:27;;;;;;;3.17;1.50;;;;;;;20.47;41.09;98411.06;8417174;28;20226;-76
2022/08/08 01:22:23;;;;;;;7.30;1.83;;;;;;;20.41;41.11;98411.50;8416842;28;20233;-76
2022/08/08 01:27:29;;;;;;;2.10;1.40;;;;;;;20.39;41.37;98405.53;8417458;28;20224;-76
2022/08/08 01:32:23;;;;;;;3.57;1.60;;;;;;;20.24;41.25;98415.47;8314436;28;20235;-77
2022/08/08 01:37:01;;;;;;;2.30;1.50;;;;;;;20.26;41.19;98410.94;8415334;28;20281;-76
2022/08/08 01:41:13;;;;;;;1.70;1.60;;;;;;;20.15;41.15;98419.63;8450007;28;20245;-77
2022/08/08 01:45:33;;;;;;;2.00;1.47;;;;;;;20.18;41.37;98411.53;8450244;28;20250;-77
2022/08/08 01:49:46;;;;;;;3.90;1.33;;;;;;;20.13;41.29;98411.03;8450213;28;20454;-76
2022/08/08 01:54:02;;;;;;;3.27;1.50;;;;;;;20.06;41.19;98413.28;8449155;28;20398;-76
2022/08/08 01:58:39;;;;;;;3.33;1.50;;;;;;;19.96;41.25;98409.69;8449857;28;20229;-76
2022/08/08 02:03:06;;;;;;;4.17;1.70;;;;;;;19.89;41.91;98414.56;8432806;28;20230;-76
2022/08/08 02:07:35;;;;;;;2.60;1.80;;;;;;;19.91;41.75;98424.97;8449196;28;20226;-76
2022/08/08 02:11:51;;;;;;;3.60;1.93;;;;;;;19.81;42.50;98411.69;8448786;28;20509;-76
2022/08/08 02:16:10;;;;;;;2.60;1.83;;;;;;;19.76;41.94;98407.72;8449143;28;20229;-78
2022/08/08 02:20:28;;;;;;;4.93;1.70;;;;;;;19.68;42.24;98413.50;8448084;28;20246;-76
2022/08/08 02:24:56;;;;;;;3.40;1.63;;;;;;;19.74;42.52;98415.72;8448126;28;20238;-76
2022/08/08 02:29:11;;;;;;;2.50;1.47;;;;;;;19.74;42.36;98410.44;8448734;28;20389;-76
2022/08/08 02:33:40;;;;;;;2.80;1.70;;;;;;;19.71;42.22;98413.31;8448564;28;20241;-77
2022/08/08 02:38:37;;;;;;;3.20;1.50;;;;;;;19.62;42.46;98409.56;8448122;28;20324;-76
2022/08/08 02:43:08;;;;;;;5.83;1.73;;;;;;;19.62;42.06;98411.34;8407730;28;20416;-77
2022/08/08 02:48:06;;;;;;;2.70;1.57;;;;;;;19.54;41.83;98406.66;8447769;28;20236;-76
2022/08/08 02:52:32;;;;;;;2.87;1.70;;;;;;;19.46;41.69;98414.28;8434065;28;20260;-77
2022/08/08 02:57:05;;;;;;;2.83;1.60;;;;;;;19.37;41.76;98412.34;8447397;28;20230;-77
2022/08/08 03:02:26;;;;;;;4.97;1.93;;;;;;;19.12;42.84;98419.38;8447659;28;20223;-76
2022/08/08 03:07:14;;;;;;;4.00;1.70;;;;;;;19.14;42.95;98418.28;8347610;28;20233;-77
2022/08/08 03:12:06;;;;;;;6.50;1.77;;;;;;;19.19;42.95;98420.59;8439942;28;20226;-76
2022/08/08 03:16:34;;;;;;;2.23;1.77;;;;;;;19.16;43.36;98425.25;8447358;28;20267;-76
2022/08/08 03:20:46;;;;;;;2.80;1.57;;;;;;;19.12;43.11;98428.06;8447371;28;20452;-76
2022/08/08 03:24:55;;;;;;;3.10;1.70;;;;;;;19.00;43.33;98428.97;8446647;28;20233;-77
2022/08/08 03:29:02;;;;;;;3.17;1.93;;;;;;;18.98;43.70;98432.63;8447223;28;20230;-76
2022/08/08 03:33:19;;;;;;;2.80;1.60;;;;;;;18.95;43.14;98438.94;8446553;28;20254;-77
2022/08/08 03:37:42;;;;;;;4.90;1.80;;;;;;;18.88;43.48;98437.69;8446877;28;20230;-77
2022/08/08 03:42:06;;;;;;;6.07;1.77;;;;;;;18.71;43.50;98446.72;8446415;28;20237;-76
2022/08/08 03:46:29;;;;;;;2.63;1.90;;;;;;;18.81;44.07;98453.06;8446883;28;20230;-76
2022/08/08 03:50:35;;;;;;;4.77;1.60;;;;;;;18.74;44.13;98459.63;8446687;28;20275;-76
2022/08/08 03:54:39;;;;;;;3.70;2.03;;;;;;;18.70;44.39;98469.50;8446152;28;20420;-76
2022/08/08 03:58:55;;;;;;;3.63;1.70;;;;;;;18.70;44.56;98463.44;8445662;28;20323;-76
2022/08/08 04:03:02;;;;;;;3.43;1.67;;;;;;;18.71;44.22;98460.66;8446599;28;20427;-76
2022/08/08 04:07:06;;;;;;;8.27;1.80;;;;;;;18.63;43.89;98465.63;8446558;28;20234;-76
2022/08/08 04:11:09;;;;;;;5.47;1.90;;;;;;;18.57;44.38;98473.91;8446432;28;20232;-76
2022/08/08 04:15:23;;;;;;;2.90;1.93;;;;;;;18.63;44.26;98463.00;8446322;28;20234;-76
2022/08/08 04:19:40;;;;;;;3.87;1.80;;;;;;;18.67;44.14;98468.88;8446321;28;20246;-76
2022/08/08 04:23:44;;;;;;;5.33;1.83;;;;;;;18.64;43.84;98479.56;8446183;28;20242;-77
2022/08/08 04:28:07;;;;;;;2.27;1.90;;;;;;;18.63;44.15;98481.34;8433666;28;20230;-76
2022/08/08 04:32:31;;;;;;;3.47;1.90;;;;;;;18.58;44.46;98483.44;8412411;28;20509;-77
2022/08/08 04:36:35;;;;;;;5.97;2.30;;;;;;;18.60;44.18;98480.72;8412464;28;20402;-77
2022/08/08 04:40:38;;;;;;;3.33;2.30;;;;;;;18.58;44.33;98493.94;8412615;28;20227;-77
2022/08/08 04:44:56;;;;;;;2.73;2.10;;;;;;;18.63;44.30;98493.66;8415372;28;20239;-77
2022/08/08 04:49:01;;;;;;;5.87;2.80;;;;;;;18.63;44.30;98499.72;8418385;28;20251;-76
2022/08/08 04:53:08;;;;;;;3.97;2.20;;;;;;;18.63;44.27;98507.59;8437231;28;20328;-76
2022/08/08 04:57:31;;;;;;;3.87;2.47;;;;;;;18.66;43.86;98503.94;8451647;28;20559;-77
2022/08/08 05:01:36;;;;;;;3.80;2.23;;;;;;;18.72;44.15;98514.00;8451653;28;20241;-77
2022/08/08 05:05:52;;;;;;;3.83;2.20;;;;;;;18.76;44.09;98518.09;8451098;28;20228;-76
2022/08/08 05:09:55;;;;;;;3.70;2.23;;;;;;;18.78;44.16;98518.81;8451200;28;20226;-76
2022/08/08 05:14:00;;;;;;;4.30;2.57;;;;;;;18.87;43.94;98525.25;8451102;28;20233;-77
2022/08/08 05:18:04;;;;;;;5.33;2.40;;;;;;;18.88;43.77;98525.13;8451162;28;20236;-77
2022/08/08 05:22:10;;;;;;;4.23;2.20;;;;;;;18.97;43.95;98528.06;8451001;28;20299;-76
2022/08/08 05:26:13;;;;;;;7.10;2.40;;;;;;;18.95;44.49;98517.69;8450900;28;20226;-76
2022/08/08 05:30:16;;;;;;;5.17;2.47;;;;;;;19.08;44.00;98525.53;8450638;28;20233;-77
2022/08/08 05:34:34;;;;;;;5.33;2.20;;;;;;;19.33;43.92;98528.09;8450566;28;20230;-77
2022/08/08 05:38:45;;;;;;;9.40;2.63;;;;;;;19.53;43.64;98526.66;8450703;28;20225;-77
2022/08/08 05:42:51;;;;;;;14.60;3.20;;;;;;;19.61;43.26;98531.38;8449886;28;20238;-76
2022/08/08 05:46:54;;;;;;;10.97;2.43;;;;;;;19.76;42.32;98531.22;8450177;28;20574;-77
2022/08/08 05:51:05;;;;;;;4.20;1.47;;;;;;;19.92;41.68;98537.03;8450154;28;20397;-77
2022/08/08 05:55:18;;;;;;;9.80;2.40;;;;;;;20.10;42.06;98542.72;8449732;28;20237;-77
2022/08/08 05:59:27;;;;;;;5.23;2.27;;;;;;;20.27;41.54;98539.66;8449770;28;20227;-77
2022/08/08 06:03:50;;;;;;;3.93;2.23;;;;;;;20.46;41.75;98536.47;8449314;28;20420;-76
2022/08/08 06:07:57;;;;;;;3.77;2.10;;;;;;;20.58;41.76;98533.88;8449545;28;20230;-77
2022/08/08 06:12:07;;;;;;;6.93;2.30;;;;;;;20.85;41.28;98539.69;8449211;28;20234;-77
2022/08/08 06:16:11;;;;;;;8.83;2.37;;;;;;;20.82;39.94;98546.97;8449291;28;20230;-77
2022/08/08 06:20:14;;;;;;;3.20;1.63;;;;;;;21.17;39.04;98548.63;8449248;28;20221;-76
2022/08/08 06:24:18;;;;;;;4.27;1.77;;;;;;;21.37;38.45;98549.72;8449039;28;20227;-77
2022/08/08 06:28:35;;;;;;;2.93;1.40;;;;;;;21.42;37.80;98548.38;8448834;28;20554;-77
2022/08/08 06:32:42;;;;;;;2.43;1.37;;;;;;;21.58;37.97;98555.09;8448717;28;20302;-79
2022/08/08 06:36:56;;;;;;;3.37;1.23;;;;;;;21.80;36.58;98554.19;8448057;28;20264;-76
2022/08/08 06:41:06;;;;;;;2.47;1.30;;;;;;;21.95;36.83;98558.22;8448486;28;20247;-74
2022/08/08 06:45:11;;;;;;;4.67;1.40;;;;;;;21.71;36.30;98555.78;8448182;28;20237;-83
2022/08/08 06:49:15;;;;;;;3.00;1.30;;;;;;;21.57;36.73;98558.66;8447030;28;20541;-77
2022/08/08 06:53:20;;;;;;;3.93;1.30;;;;;;;22.15;36.48;98555.75;8448217;28;20320;-77
2022/08/08 06:57:23;;;;;;;5.67;1.20;;;;;;;22.03;36.21;98561.06;8447912;28;20233;-76
2022/08/08 07:01:37;;;;;;;2.43;1.07;;;;;;;22.58;36.48;98571.50;8447749;28;20605;-76
2022/08/08 07:06:01;;;;;;;2.00;1.20;;;;;;;22.61;35.41;98559.84;8446926;28;20535;-76
2022/08/08 07:10:06;;;;;;;2.83;1.30;;;;;;;22.66;35.14;98565.56;8447855;28;20232;-77
2022/08/08 07:14:16;;;;;;;5.03;1.30;;;;;;;22.57;34.52;98563.69;8447353;28;20283;-76
2022/08/08 07:18:39;;;;;;;3.53;1.30;;;;;;;23.33;33.86;98556.28;8447221;28;20233;-76
2022/08/08 07:22:52;;;;;;;5.33;1.20;;;;;;;23.65;34.30;98560.56;8447321;28;20539;-77
2022/08/08 07:26:55;;;;;;;4.33;1.10;;;;;;;23.85;33.28;98565.88;8446934;28;20222;-76
2022/08/08 07:30:59;;;;;;;2.43;1.10;;;;;;;24.06;32.96;98561.31;8447038;28;20570;-76
2022/08/08 07:35:04;;;;;;;4.37;1.30;;;;;;;24.56;32.93;98562.94;8446978;28;20230;-76
2022/08/08 07:39:10;;;;;;;6.03;1.23;;;;;;;24.87;32.79;98576.00;8447013;28;20256;-77
2022/08/08 07:43:15;;;;;;;4.70;1.20;;;;;;;25.10;31.85;98572.00;8447065;28;20229;-77
2022/08/08 07:47:36;;;;;;;4.33;1.37;;;;;;;25.21;30.86;98572.78;8446561;28;20236;-76
2022/08/08 07:51:42;;;;;;;4.57;1.33;;;;;;;25.06;31.39;98575.09;8446740;28;20417;-77
2022/08/08 07:55:58;;;;;;;4.07;1.20;;;;;;;25.15;30.24;98574.19;8446125;28;20294;-76
2022/08/08 08:00:04;;;;;;;12.50;1.50;;;;;;;25.64;29.67;98574.00;8446624;28;20249;-76
2022/08/08 08:04:22;;;;;;;4.90;1.40;;;;;;;25.51;29.56;98575.19;8446311;28;20278;-77
2022/08/08 08:08:32;;;;;;;1.70;1.10;;;;;;;26.21;29.33;98573.75;8446450;28;20229;-76
2022/08/08 08:12:38;;;;;;;4.93;1.43;;;;;;;26.40;28.78;98578.88;8446365;28;20237;-79
2022/08/08 08:16:46;;;;;;;5.50;1.33;;;;;;;26.27;28.42;98574.00;8446267;28;20239;-75
2022/08/08 08:20:53;;;;;;;3.03;1.13;;;;;;;27.22;27.96;98586.56;8451548;28;20236;-74
2022/08/08 08:24:58;;;;;;;4.43;1.90;;;;;;;27.25;26.91;98579.13;8453100;28;20294;-74
2022/08/08 08:29:10;;;;;;;7.17;1.57;;;;;;;27.40;27.22;98586.53;8452726;28;20255;-76
2022/08/08 08:33:18;;;;;;;7.87;1.07;;;;;;;27.05;26.95;98581.16;8452584;28;20225;-77
2022/08/08 08:37:22;;;;;;;2.43;1.00;;;;;;;27.69;26.80;98567.50;8452648;28;20299;-77
2022/08/08 08:41:33;;;;;;;3.40;1.00;;;;;;;28.47;26.09;98575.06;8452436;28;20231;-73
2022/08/08 08:45:36;;;;;;;2.57;0.97;;;;;;;28.66;25.72;98570.41;8452413;28;20234;-77
2022/08/08 08:49:39;;;;;;;7.17;1.20;;;;;;;28.69;24.00;98569.25;8452067;28;20239;-76
2022/08/08 08:53:48;;;;;;;6.03;1.00;;;;;;;29.02;24.84;98568.16;8438880;28;20229;-77
2022/08/08 08:58:03;;;;;;;3.70;1.10;;;;;;;29.52;23.72;98571.50;8443322;28;20241;-76
2022/08/08 09:02:15;;;;;;;4.47;1.20;;;;;;;29.62;24.16;98564.13;8451428;28;20580;-78
2022/08/08 09:06:21;;;;;;;1.70;0.87;;;;;;;29.97;22.95;98569.94;8451646;28;20500;-77
2022/08/08 09:10:32;;;;;;;2.47;0.97;;;;;;;29.90;22.47;98570.81;8451428;28;20234;-77
2022/08/08 09:14:36;;;;;;;5.37;0.90;;;;;;;30.14;22.98;98575.13;8451290;28;20520;-78
2022/08/08 09:18:44;;;;;;;6.90;1.20;;;;;;;30.60;22.50;98573.28;8451171;28;20226;-77
2022/08/08 09:22:49;;;;;;;1.90;0.97;;;;;;;30.84;22.77;98570.53;8442715;28;20229;-77
2022/08/08 09:27:00;;;;;;;6.13;1.10;;;;;;;31.10;21.80;98575.47;8450985;28;20578;-83
2022/08/08 09:31:07;;;;;;;2.40;0.93;;;;;;;31.21;22.02;98583.03;8450793;28;20239;-76
2022/08/08 09:35:17;;;;;;;4.10;1.20;;;;;;;31.58;21.26;98578.56;8450778;28;20227;-77
2022/08/08 09:39:29;;;;;;;4.97;0.90;;;;;;;30.51;20.80;98568.19;8450759;28;20234;-77
2022/08/08 09:43:48;;;;;;;7.80;1.00;;;;;;;30.10;22.33;98574.69;8451123;28;20233;-76
2022/08/08 09:48:16;;;;;;;3.80;1.03;;;;;;;29.93;21.89;98570.44;8441955;28;20227;-76
2022/08/08 09:52:32;;;;;;;4.87;1.00;;;;;;;31.24;21.89;98571.09;8450754;28;20229;-76
2022/08/08 09:56:55;;;;;;;4.37;1.10;;;;;;;31.74;20.74;98556.94;8449930;28;20453;-76
2022/08/08 10:01:00;;;;;;;4.20;1.00;;;;;;;32.09;20.28;98548.22;8450356;28;20292;-76
2022/08/08 10:05:07;;;;;;;3.27;0.90;;;;;;;31.14;20.52;98550.81;8450033;28;20235;-76
2022/08/08 10:09:17;;;;;;;6.23;1.00;;;;;;;32.05;19.71;98541.59;8449939;28;20421;-77
2022/08/08 10:13:25;;;;;;;10.83;1.50;;;;;;;32.34;19.54;98540.59;8449554;28;20298;-77
2022/08/08 10:17:47;;;;;;;6.50;0.80;;;;;;;30.84;18.29;98546.47;8445991;28;20225;-77
2022/08/08 10:22:14;;;;;;;2.03;0.83;;;;;;;30.85;18.77;98540.94;8415227;28;20238;-77
2022/08/08 10:26:20;;;;;;;3.77;0.77;;;;;;;30.90;19.28;98535.91;8415761;28;20294;-77
2022/08/08 10:30:33;;;;;;;3.63;0.90;;;;;;;31.45;18.81;98546.25;8415968;28;20545;-77
2022/08/08 10:34:58;;;;;;;2.63;0.70;;;;;;;31.13;19.40;98534.94;8414924;28;20539;-77
2022/08/08 10:39:05;;;;;;;3.93;1.17;;;;;;;31.71;18.94;98540.41;8417929;28;20251;-76
2022/08/08 10:43:10;;;;;;;2.03;0.90;;;;;;;31.49;17.67;98548.41;8414418;28;20229;-77
2022/08/08 10:47:15;;;;;;;4.13;0.97;;;;;;;31.32;19.18;98534.38;8414687;28;20534;-77
2022/08/08 10:51:23;;;;;;;3.50;0.97;;;;;;;31.35;18.80;98533.19;8419267;28;20281;-77
2022/08/08 10:55:30;;;;;;;3.90;0.80;;;;;;;30.74;18.80;98541.41;8448338;28;20237;-76
2022/08/08 10:59:51;;;;;;;2.40;0.90;;;;;;;31.20;19.15;98533.19;8448050;28;20220;-74
2022/08/08 11:03:57;;;;;;;4.03;0.93;;;;;;;31.92;19.19;98532.38;8448117;28;20244;-74
2022/08/08 11:08:06;;;;;;;3.23;1.00;;;;;;;31.25;18.00;98535.34;8448455;28;20239;-75
2022/08/08 11:12:30;;;;;;;1.40;0.70;;;;;;;31.19;17.93;98528.88;8448038;28;20230;-75
2022/08/08 11:16:42;;;;;;;2.67;0.60;;;;;;;32.03;17.39;98524.91;8447579;28;20263;-75
2022/08/08 11:20:50;;;;;;;2.50;0.80;;;;;;;30.75;18.47;98532.38;8447280;28;20452;-75
2022/08/08 11:24:55;;;;;;;1.93;0.73;;;;;;;32.37;18.17;98516.09;8447577;28;20522;-75
2022/08/08 11:29:02;;;;;;;2.47;0.70;;;;;;;32.80;18.04;98517.84;8447208;28;20234;-75
2022/08/08 11:33:06;;;;;;;3.50;0.90;;;;;;;32.63;16.99;98517.34;8447452;28;20232;-74
2022/08/08 11:37:14;;;;;;;4.37;0.90;;;;;;;31.85;19.18;98511.91;8446830;28;20232;-75
2022/08/08 11:41:17;;;;;;;1.73;0.80;;;;;;;32.77;18.17;98510.19;8447112;28;20226;-76
2022/08/08 11:45:22;;;;;;;4.13;0.90;;;;;;;32.21;18.58;98511.03;8447627;28;20233;-76
2022/08/08 11:49:26;;;;;;;2.00;0.90;;;;;;;32.75;18.13;98505.03;8447273;28;20231;-73
2022/08/08 11:53:29;;;;;;;2.87;0.80;;;;;;;32.53;17.86;98506.94;8452335;28;20227;-73
2022/08/08 11:57:45;;;;;;;4.17;0.80;;;;;;;31.40;17.26;98503.16;8457892;28;20321;-75
2022/08/08 12:02:04;;;;;;;1.33;0.80;;;;;;;32.57;16.99;98499.38;8441560;28;20228;-75
2022/08/08 12:06:27;;;;;;;6.37;0.90;;;;;;;32.49;17.70;98494.94;8457302;28;20228;-75
2022/08/08 12:10:30;;;;;;;2.50;1.00;;;;;;;32.99;16.64;98505.56;8452442;28;20226;-75
2022/08/08 12:14:35;;;;;;;4.53;0.90;;;;;;;33.28;17.71;98491.06;8440243;28;20452;-75
2022/08/08 12:18:47;;;;;;;2.77;1.03;;;;;;;33.70;17.71;98483.78;8439823;28;20288;-75
2022/08/08 12:22:52;;;;;;;2.87;0.87;;;;;;;33.93;17.40;98495.97;8439635;28;20240;-74
2022/08/08 12:26:55;;;;;;;2.43;0.80;;;;;;;33.92;16.55;98491.63;8456840;28;20263;-73
2022/08/08 12:31:05;;;;;;;2.60;0.87;;;;;;;33.27;16.02;98484.06;8452133;28;20522;-75
2022/08/08 12:35:18;;;;;;;1.50;0.80;;;;;;;33.73;16.18;98475.28;8457321;28;20258;-80
2022/08/08 12:39:26;;;;;;;5.37;0.70;;;;;;;33.59;16.61;98479.78;8457449;28;20238;-74
2022/08/08 12:43:49;;;;;;;1.03;0.70;;;;;;;33.61;16.53;98483.09;8456649;28;20479;-74
2022/08/08 12:48:04;;;;;;;1.40;0.77;;;;;;;33.72;16.41;98475.50;8457154;28;20262;-74
2022/08/08 12:52:33;;;;;;;2.97;0.90;;;;;;;33.44;16.17;98474.59;8456135;28;20229;-75
2022/08/08 12:56:39;;;;;;;2.37;1.00;;;;;;;33.52;16.46;98470.91;8428656;28;20522;-74
2022/08/08 13:00:42;;;;;;;1.70;0.80;;;;;;;33.02;16.35;98473.00;8423203;28;20232;-76
2022/08/08 13:04:49;;;;;;;3.60;0.87;;;;;;;33.58;16.59;98467.38;8420014;28;20530;-75
2022/08/08 13:08:54;;;;;;;1.23;0.60;;;;;;;33.39;15.96;98468.19;8400949;28;20224;-74
2022/08/08 13:13:01;;;;;;;3.40;0.83;;;;;;;33.79;15.48;98465.59;8417505;28;20238;-75
2022/08/08 13:17:09;;;;;;;2.20;0.60;;;;;;;32.17;16.26;98470.41;8417551;28;20542;-73
2022/08/08 13:21:33;;;;;;;4.87;0.80;;;;;;;32.66;16.65;98458.78;8417577;28;20419;-74
2022/08/08 13:25:57;;;;;;;1.03;0.67;;;;;;;33.49;16.63;98455.19;8408137;28;20234;-75
2022/08/08 13:30:14;;;;;;;2.97;1.17;;;;;;;32.03;16.40;98448.03;8450856;28;20227;-75
2022/08/08 13:34:24;;;;;;;7.10;0.80;;;;;;;32.37;15.85;98448.25;8450557;28;20225;-75
2022/08/08 13:38:38;;;;;;;3.83;0.80;;;;;;;33.05;16.85;98448.44;8449745;28;20231;-75
2022/08/08 13:42:43;;;;;;;3.13;0.70;;;;;;;33.31;17.15;98434.31;8450067;28;20237;-75
2022/08/08 13:46:54;;;;;;;3.30;0.77;;;;;;;32.80;16.68;98434.72;8449989;28;20240;-75
2022/08/08 13:50:57;;;;;;;3.23;0.80;;;;;;;32.58;17.52;98434.84;8423100;28;20223;-75
2022/08/08 13:55:20;;;;;;;4.07;0.80;;;;;;;32.92;17.06;98427.78;8420645;28;20225;-76
2022/08/08 13:59:35;;;;;;;4.73;0.90;;;;;;;33.25;17.01;98419.03;8449715;28;20234;-76
2022/08/08 14:03:51;;;;;;;2.23;0.87;;;;;;;32.18;16.67;98426.53;8450500;28;20229;-76
2022/08/08 14:07:58;;;;;;;2.30;0.90;;;;;;;32.19;16.96;98417.44;8449367;28;20232;-75
2022/08/08 14:12:18;;;;;;;4.17;0.70;;;;;;;31.61;16.58;98420.28;8449588;28;20409;-76
2022/08/08 14:16:23;;;;;;;2.43;0.80;;;;;;;32.48;17.21;98431.63;8448423;28;20240;-76
2022/08/08 14:20:31;;;;;;;2.03;0.60;;;;;;;32.54;16.84;98428.19;8449283;28;20282;-76
2022/08/08 14:24:56;;;;;;;0.87;0.67;;;;;;;31.85;16.22;98424.38;8448987;28;20527;-76
2022/08/08 14:29:01;;;;;;;2.20;0.90;;;;;;;31.94;16.29;98420.53;8448989;28;20576;-78
2022/08/08 14:33:25;;;;;;;1.20;0.60;;;;;;;31.82;16.88;98419.41;8449246;28;20553;-78
2022/08/08 14:37:39;;;;;;;1.17;0.80;;;;;;;31.77;16.96;98419.16;8448949;28;20234;-78
2022/08/08 14:42:02;;;;;;;2.80;0.80;;;;;;;31.25;17.05;98417.63;8448671;28;20232;-77
2022/08/08 14:46:09;;;;;;;2.27;0.90;;;;;;;31.52;17.81;98402.69;8448332;28;20331;-77
2022/08/08 14:50:15;;;;;;;2.03;0.70;;;;;;;31.85;18.16;98412.84;8448194;28;20303;-77
2022/08/08 14:54:46;;;;;;;3.30;0.70;;;;;;;31.85;18.44;98412.84;8447661;28;20227;-77
2022/08/08 14:58:50;;;;;;;2.97;0.80;;;;;;;31.97;18.81;98408.63;8447280;28;20551;-77
2022/08/08 15:02:55;;;;;;;1.40;0.87;;;;;;;31.90;18.65;98419.28;8447804;28;20231;-77
2022/08/08 15:07:20;;;;;;;5.20;0.90;;;;;;;31.97;18.88;98411.31;8447320;28;20287;-77
2022/08/08 15:11:27;;;;;;;2.43;0.90;;;;;;;31.67;18.20;98411.47;8447266;28;20496;-77
2022/08/08 15:15:39;;;;;;;1.90;0.80;;;;;;;31.81;18.74;98403.53;8447405;28;20508;-77
2022/08/08 15:20:02;;;;;;;1.63;0.80;;;;;;;31.84;18.72;98395.94;8447058;28;20313;-77
2022/08/08 15:24:07;;;;;;;0.80;0.73;;;;;;;31.73;19.01;98397.28;8447074;28;20235;-76
2022/08/08 15:28:16;;;;;;;1.77;0.80;;;;;;;31.18;18.40;98399.63;8446575;28;20612;-78
2022/08/08 15:32:36;;;;;;;2.57;1.07;;;;;;;31.38;18.73;98404.38;8447126;28;20234;-83
2022/08/08 15:36:41;;;;;;;2.90;0.80;;;;;;;31.11;18.40;98396.09;8447374;28;20232;-80
2022/08/08 15:40:46;;;;;;;2.43;0.90;;;;;;;31.01;18.73;98402.75;8447579;28;20474;-79
2022/08/08 15:44:49;;;;;;;2.90;0.90;;;;;;;31.02;18.37;98409.75;8446713;28;20231;-80
2022/08/08 15:48:52;;;;;;;4.20;1.07;;;;;;;30.53;18.20;98411.19;8447125;28;20301;-79
2022/08/08 15:52:57;;;;;;;1.73;0.97;;;;;;;30.65;18.67;98411.53;8446852;28;20408;-79
2022/08/08 15:57:01;;;;;;;6.20;0.90;;;;;;;30.48;18.58;98402.88;8446870;28;20555;-78
2022/08/08 16:01:04;;;;;;;1.10;0.80;;;;;;;30.62;19.51;98402.06;8447175;28;20405;-79
2022/08/08 16:05:08;;;;;;;1.17;0.80;;;;;;;30.55;19.33;98395.78;8447021;28;20238;-79
2022/08/08 16:09:16;;;;;;;1.93;0.77;;;;;;;30.47;19.33;98393.22;8447000;28;20231;-78
2022/08/08 16:13:40;;;;;;;2.53;0.80;;;;;;;30.35;19.33;98406.22;8446779;28;20226;-80
2022/08/08 16:17:47;;;;;;;1.30;0.80;;;;;;;30.24;19.54;98387.94;8446630;28;20226;-81
2022/08/08 16:22:10;;;;;;;2.63;0.83;;;;;;;30.08;19.79;98391.59;8433098;28;20229;-82
2022/08/08 16:26:33;;;;;;;1.70;0.80;;;;;;;29.72;19.22;98398.41;8446486;28;20232;-81
2022/08/08 16:30:39;;;;;;;1.90;0.70;;;;;;;29.71;19.21;98395.94;8446104;28;20296;-77
2022/08/08 16:34:43;;;;;;;2.20;0.90;;;;;;;29.73;20.27;98401.94;8446265;28;20337;-77
2022/08/08 16:38:46;;;;;;;2.73;0.97;;;;;;;29.65;19.67;98400.16;8446318;28;20234;-77
2022/08/08 16:42:58;;;;;;;1.33;0.80;;;;;;;29.57;19.45;98398.38;8452248;28;20228;-77
2022/08/08 16:47:17;;;;;;;1.07;0.60;;;;;;;29.43;19.01;98399.13;8452578;28;20240;-76
2022/08/08 16:51:31;;;;;;;5.13;1.00;;;;;;;29.18;19.46;98388.63;8452178;28;20526;-77
2022/08/08 16:55:53;;;;;;;3.60;0.73;;;;;;;29.22;19.37;98391.78;8441940;28;20544;-76
2022/08/08 17:00:00;;;;;;;3.07;0.97;;;;;;;29.07;19.54;98390.84;8442348;28;20533;-76
2022/08/08 17:04:09;;;;;;;2.03;0.90;;;;;;;29.07;19.40;98386.34;8417887;28;20237;-75
2022/08/08 17:08:13;;;;;;;3.87;0.90;;;;;;;29.03;19.78;98382.38;8417698;28;20237;-76
2022/08/08 17:12:16;;;;;;;2.77;0.90;;;;;;;28.96;20.28;98384.06;8423005;28;20233;-76
2022/08/08 17:16:23;;;;;;;2.80;0.83;;;;;;;28.91;19.88;98386.47;8417425;28;20228;-76
2022/08/08 17:20:28;;;;;;;2.93;1.20;;;;;;;28.80;19.99;98385.81;8438822;28;20558;-76
2022/08/08 17:24:32;;;;;;;1.80;1.00;;;;;;;28.73;20.03;98400.88;8450943;28;20239;-76
2022/08/08 17:28:35;;;;;;;1.10;0.90;;;;;;;28.62;20.21;98402.06;8450691;28;20233;-76
2022/08/08 17:32:37;;;;;;;2.03;0.87;;;;;;;28.49;20.00;98399.09;8450771;28;20238;-76
2022/08/08 17:37:02;;;;;;;4.23;1.00;;;;;;;28.39;19.69;98404.63;8450148;28;20239;-77
2022/08/08 17:41:13;;;;;;;2.60;0.80;;;;;;;28.39;19.76;98406.47;8450132;28;20244;-74
2022/08/08 17:45:17;;;;;;;2.83;0.90;;;;;;;28.45;20.15;98409.25;8450114;28;20548;-77
2022/08/08 17:49:25;;;;;;;1.53;0.90;;;;;;;28.34;20.65;98411.47;8450003;28;20405;-76
2022/08/08 17:53:32;;;;;;;1.90;1.10;;;;;;;28.34;20.57;98412.28;8449788;28;20244;-77
2022/08/08 17:57:45;;;;;;;5.50;1.07;;;;;;;28.27;20.89;98414.81;8449907;28;20270;-77
2022/08/08 18:01:50;;;;;;;1.30;0.67;;;;;;;28.22;20.93;98411.81;8449079;28;20232;-76
2022/08/08 18:05:55;;;;;;;1.37;0.80;;;;;;;28.03;21.39;98422.84;8449450;28;20234;-77
2022/08/08 18:09:59;;;;;;;1.50;0.90;;;;;;;28.10;20.94;98421.16;8418818;28;20324;-78
2022/08/08 18:14:02;;;;;;;4.97;0.97;;;;;;;28.04;21.43;98425.31;8415539;28;20238;-76
2022/08/08 18:18:20;;;;;;;1.53;0.67;;;;;;;27.98;21.99;98435.81;8415373;28;20242;-75
2022/08/08 18:22:31;;;;;;;4.13;0.83;;;;;;;27.87;22.73;98439.59;8415373;28;20232;-76
2022/08/08 18:26:56;;;;;;;2.60;0.90;;;;;;;27.86;24.19;98440.63;8414670;28;20224;-75
2022/08/08 18:30:58;;;;;;;2.23;0.80;;;;;;;27.74;22.75;98447.25;8415217;28;20237;-75
2022/08/08 18:35:04;;;;;;;2.77;1.00;;;;;;;27.74;24.52;98449.91;8415201;28;20241;-76
2022/08/08 18:39:17;;;;;;;3.87;1.27;;;;;;;27.61;23.65;98451.25;8414967;28;20255;-75
2022/08/08 18:43:32;;;;;;;8.97;1.30;;;;;;;27.52;25.57;98452.25;8414587;28;20227;-74
2022/08/08 18:47:45;;;;;;;5.47;1.30;;;;;;;27.38;24.74;98458.19;8414444;28;20238;-73
2022/08/08 18:51:48;;;;;;;7.33;1.27;;;;;;;27.39;24.54;98470.50;8405180;28;20527;-73
2022/08/08 18:55:57;;;;;;;6.63;1.23;;;;;;;27.30;25.53;98467.84;8448069;28;20237;-73
2022/08/08 19:00:02;;;;;;;4.93;0.90;;;;;;;27.26;24.36;98474.47;8448065;28;20330;-73
2022/08/08 19:04:05;;;;;;;4.47;1.20;;;;;;;27.09;25.70;98484.19;8447316;28;20406;-74
2022/08/08 19:08:16;;;;;;;5.43;1.10;;;;;;;27.00;23.65;98502.94;8447020;28;20231;-74
2022/08/08 19:12:31;;;;;;;6.93;1.20;;;;;;;26.95;24.34;98498.06;8447419;28;20233;-76
2022/08/08 19:16:40;;;;;;;2.73;1.00;;;;;;;26.92;24.48;98507.22;8447638;28;20538;-75
2022/08/08 19:20:43;;;;;;;5.20;1.10;;;;;;;26.84;23.85;98515.13;8447365;28;20236;-73
2022/08/08 19:24:48;;;;;;;6.50;1.30;;;;;;;26.75;25.07;98521.41;8446853;28;20223;-74
2022/08/08 19:29:11;;;;;;;3.03;1.13;;;;;;;26.73;24.95;98515.38;8446895;28;20238;-72
2022/08/08 19:33:24;;;;;;;3.17;1.00;;;;;;;26.60;24.62;98517.63;8446957;28;20232;-75
2022/08/08 19:37:50;;;;;;;5.33;1.00;;;;;;;26.51;24.76;98530.84;8446501;28;20233;-75
2022/08/08 19:41:59;;;;;;;4.10;1.20;;;;;;;26.41;24.90;98531.94;8446654;28;20306;-75
2022/08/08 19:46:02;;;;;;;1.97;1.20;;;;;;;26.37;24.97;98533.22;8446879;28;20464;-75
2022/08/08 19:50:08;;;;;;;3.37;1.53;;;;;;;26.36;24.94;98540.34;8447023;28;20261;-76
2022/08/08 19:54:16;;;;;;;3.43;1.10;;;;;;;26.20;24.80;98537.56;8446681;28;20234;-75